Time;durP1;ratioP1;P1;durP2;ratioP2;P2;SDS_P1;SDS_P2;PMS_P1;PMS_P2;Temp;Humidity;BMP_temperature;BMP_pressure;BME280_temperature;BME280_humidity;BME280_pressure;Samples;Min_cycle;Max_cycle;Signal;HPM_P1;HPM_P2
2022/11/06 00:01:59;;;;;;;27.48;12.90;;;3.40;99.90;;;;;;5028183;28;20057;-59
2022/11/06 00:04:28;;;;;;;70.47;14.85;;;3.40;99.90;;;;;;5028225;28;20026;-59
2022/11/06 00:06:53;;;;;;;40.60;13.35;;;3.40;99.90;;;;;;5027687;28;20032;-59
2022/11/06 00:09:20;;;;;;;62.92;14.10;;;3.40;99.90;;;;;;5027691;28;20029;-61
2022/11/06 00:11:47;;;;;;;34.42;12.35;;;3.40;99.90;;;;;;5026388;28;20478;-57
2022/11/06 00:14:13;;;;;;;31.88;12.93;;;3.50;99.90;;;;;;5025098;28;20018;-58
2022/11/06 00:16:39;;;;;;;50.85;11.88;;;3.50;99.90;;;;;;5027208;28;20018;-60
2022/11/06 00:19:06;;;;;;;15.82;12.52;;;3.50;99.90;;;;;;5026900;28;20045;-59
2022/11/06 00:21:32;;;;;;;20.75;11.80;;;3.50;99.90;;;;;;5028419;28;20037;-59
2022/11/06 00:24:00;;;;;;;22.90;13.32;;;3.50;99.90;;;;;;5025800;28;20072;-59
2022/11/06 00:26:28;;;;;;;25.15;13.57;;;3.50;99.90;;;;;;5027339;28;20108;-58
2022/11/06 00:28:54;;;;;;;17.35;12.95;;;3.60;99.90;;;;;;5027910;28;20501;-59
2022/11/06 00:31:25;;;;;;;31.63;13.77;;;3.60;99.90;;;;;;5027116;28;20044;-60
2022/11/06 00:33:52;;;;;;;45.17;13.88;;;3.50;99.90;;;;;;5027573;28;20116;-58
2022/11/06 00:36:20;;;;;;;29.77;14.75;;;3.50;99.90;;;;;;5026463;28;20065;-59
2022/11/06 00:38:46;;;;;;;37.08;16.33;;;3.50;99.90;;;;;;5026881;28;20087;-60
2022/11/06 00:41:14;;;;;;;50.08;15.65;;;3.50;99.90;;;;;;5027393;28;20489;-60
2022/11/06 00:43:40;;;;;;;74.68;14.65;;;3.50;99.90;;;;;;5027401;28;20033;-60
2022/11/06 00:46:13;;;;;;;67.95;11.98;;;3.50;99.90;;;;;;5027464;28;20029;-60
2022/11/06 00:48:40;;;;;;;107.20;12.27;;;3.40;99.90;;;;;;5026382;28;20034;-60
2022/11/06 00:51:13;;;;;;;240.32;16.63;;;3.30;99.90;;;;;;5027938;28;20029;-58
2022/11/06 00:53:39;;;;;;;95.35;12.15;;;3.20;99.90;;;;;;5026363;28;20022;-58
2022/11/06 00:56:05;;;;;;;97.55;12.43;;;3.00;99.90;;;;;;5026010;28;20045;-60
2022/11/06 00:58:31;;;;;;;62.38;11.02;;;3.00;99.90;;;;;;5025151;28;20488;-58
2022/11/06 01:01:05;;;;;;;17.95;10.90;;;3.00;99.90;;;;;;5027539;28;20028;-59
2022/11/06 01:03:31;;;;;;;23.25;12.40;;;3.00;99.90;;;;;;5026938;28;20480;-59
2022/11/06 01:06:12;;;;;;;23.58;13.50;;;3.10;99.90;;;;;;5027673;28;20117;-59
2022/11/06 01:08:38;;;;;;;;;;;3.10;99.90;;;;;;5028639;28;20234;-59
2022/11/06 01:11:18;;;;;;;19.35;14.07;;;3.30;99.90;;;;;;5026345;28;19978;-61
2022/11/06 01:13:47;;;;;;;20.17;14.20;;;3.40;99.90;;;;;;5025771;28;20068;-60
2022/11/06 01:16:14;;;;;;;22.50;14.23;;;3.60;99.90;;;;;;5024683;28;20038;-59
2022/11/06 01:18:41;;;;;;;14.35;12.93;;;3.70;99.90;;;;;;5027397;28;20060;-60
2022/11/06 01:21:10;;;;;;;12.93;11.35;;;3.80;99.90;;;;;;5026914;28;20083;-59
2022/11/06 01:23:35;;;;;;;11.75;10.55;;;3.80;99.90;;;;;;5040232;28;20477;-59
2022/11/06 01:26:05;;;;;;;9.73;8.82;;;3.90;99.90;;;;;;5027042;28;20117;-60
2022/11/06 01:28:31;;;;;;;9.52;8.60;;;3.90;99.90;;;;;;5026921;28;20124;-59
2022/11/06 01:31:05;;;;;;;10.77;8.73;;;3.90;99.90;;;;;;5027052;28;20021;-59
2022/11/06 01:33:31;;;;;;;9.00;8.20;;;3.90;99.90;;;;;;5025717;28;20552;-60
2022/11/06 01:35:56;;;;;;;8.43;7.72;;;3.90;99.90;;;;;;5027229;28;20025;-60
2022/11/06 01:38:22;;;;;;;12.82;8.52;;;3.80;99.90;;;;;;5026843;28;20608;-58
2022/11/06 01:40:48;;;;;;;11.25;9.57;;;3.80;99.90;;;;;;5026799;28;20019;-59
2022/11/06 01:43:38;;;;;;;18.75;11.65;;;3.90;99.90;;;;;;5026699;28;20164;-58
2022/11/06 01:46:04;;;;;;;16.58;11.65;;;3.90;99.90;;;;;;5026687;28;20033;-59
2022/11/06 01:48:29;;;;;;;12.88;11.52;;;4.00;99.90;;;;;;5027011;28;20029;-58
2022/11/06 01:50:57;;;;;;;13.93;11.52;;;4.00;99.90;;;;;;5026663;28;20026;-58
2022/11/06 01:53:23;;;;;;;12.10;10.25;;;3.90;99.90;;;;;;5027959;28;20030;-60
2022/11/06 01:55:52;;;;;;;12.23;10.65;;;3.90;99.90;;;;;;5026688;28;20098;-58
2022/11/06 01:58:21;;;;;;;11.50;10.30;;;3.90;99.90;;;;;;5025332;28;20032;-59
2022/11/06 02:00:48;;;;;;;11.13;9.98;;;3.90;99.90;;;;;;5026400;28;20022;-60
2022/11/06 02:03:14;;;;;;;11.73;9.98;;;3.90;99.90;;;;;;5024419;28;20053;-59
2022/11/06 02:05:40;;;;;;;11.52;9.20;;;3.80;99.90;;;;;;5026844;28;20025;-60
2022/11/06 02:08:08;;;;;;;11.75;9.70;;;3.90;99.90;;;;;;5026623;28;20037;-59
2022/11/06 02:10:35;;;;;;;12.68;11.35;;;3.80;99.90;;;;;;5027974;28;20591;-60
2022/11/06 02:13:05;;;;;;;12.18;10.82;;;3.90;99.90;;;;;;5028159;28;20037;-60
2022/11/06 02:15:44;;;;;;;13.57;11.57;;;3.80;99.90;;;;;;5028799;28;20026;-59
2022/11/06 02:18:10;;;;;;;14.00;11.60;;;3.90;99.90;;;;;;5028173;28;20512;-60
2022/11/06 02:21:02;;;;;;;13.02;10.95;;;3.90;99.90;;;;;;5030876;28;20034;-59
2022/11/06 02:23:49;;;;;;;13.60;11.25;;;3.90;99.90;;;;;;5030244;28;20045;-59
2022/11/06 02:26:42;;;;;;;18.48;11.50;;;4.00;99.90;;;;;;5029900;28;20045;-60
2022/11/06 02:29:24;;;;;;;12.63;11.32;;;4.00;99.90;;;;;;5028421;28;20742;-58
2022/11/06 02:31:53;;;;;;;14.40;11.65;;;4.10;99.90;;;;;;5030312;28;20025;-58
2022/11/06 02:34:23;;;;;;;15.85;12.30;;;4.10;99.90;;;;;;5029180;28;20028;-57
2022/11/06 02:37:05;;;;;;;13.07;11.68;;;4.10;99.90;;;;;;5029730;28;20029;-59
2022/11/06 02:39:34;;;;;;;18.92;13.45;;;4.20;99.90;;;;;;5028482;28;20033;-58
2022/11/06 02:42:04;;;;;;;19.73;13.93;;;4.20;99.90;;;;;;5029385;28;20028;-58
2022/11/06 02:44:34;;;;;;;17.35;12.95;;;4.30;99.90;;;;;;5030026;28;20573;-58
2022/11/06 02:47:08;;;;;;;22.27;13.50;;;4.30;99.90;;;;;;5028226;28;20056;-59
2022/11/06 02:49:39;;;;;;;17.55;13.45;;;4.40;99.90;;;;;;5029444;28;20025;-58
2022/11/06 02:52:10;;;;;;;17.42;13.43;;;4.50;99.90;;;;;;5029090;28;20037;-60
2022/11/06 02:54:39;;;;;;;18.45;13.93;;;4.60;99.90;;;;;;5028871;28;20029;-60
2022/11/06 02:57:09;;;;;;;23.60;13.70;;;4.70;99.90;;;;;;5028721;28;20029;-60
2022/11/06 03:00:12;;;;;;;24.40;15.73;;;4.70;99.90;;;;;;5028638;28;20029;-59
2022/11/06 03:02:47;;;;;;;19.17;14.05;;;4.80;99.90;;;;;;4984557;28;20030;-59
2022/11/06 03:05:20;;;;;;;19.08;13.43;;;4.80;99.90;;;;;;5023670;28;20037;-60
2022/11/06 03:08:07;;;;;;;20.48;13.52;;;4.80;99.90;;;;;;5027838;28;20029;-59
2022/11/06 03:10:51;;;;;;;17.17;12.82;;;4.90;99.90;;;;;;5027658;28;20029;-59
2022/11/06 03:13:21;;;;;;;25.55;13.52;;;4.90;99.90;;;;;;5028508;28;20520;-59
2022/11/06 03:16:06;;;;;;;20.42;13.85;;;4.90;99.90;;;;;;5028461;28;20579;-59
2022/11/06 03:18:35;;;;;;;18.33;12.73;;;4.90;99.90;;;;;;5028601;28;20126;-59
2022/11/06 03:21:07;;;;;;;15.85;12.27;;;4.90;99.90;;;;;;5028575;28;20040;-60
2022/11/06 03:23:34;;;;;;;23.60;14.68;;;4.90;99.90;;;;;;5028899;28;20036;-58
2022/11/06 03:26:08;;;;;;;21.73;14.60;;;4.90;99.90;;;;;;5028476;28;20652;-60
2022/11/06 03:28:38;;;;;;;24.58;15.00;;;4.90;99.90;;;;;;5027714;28;20385;-60
2022/11/06 03:31:13;;;;;;;27.80;15.23;;;4.80;99.90;;;;;;5028913;28;20028;-60
2022/11/06 03:33:42;;;;;;;25.00;16.35;;;4.80;99.90;;;;;;5027049;28;20520;-61
2022/11/06 03:36:17;;;;;;;29.70;16.08;;;4.80;99.90;;;;;;5028652;28;20110;-60
2022/11/06 03:38:47;;;;;;;28.40;15.40;;;4.70;99.90;;;;;;5029125;28;20044;-60
2022/11/06 03:41:29;;;;;;;23.67;16.08;;;4.60;99.90;;;;;;5027964;28;20481;-59
2022/11/06 03:43:58;;;;;;;26.65;15.55;;;4.60;99.90;;;;;;5027211;28;20081;-60
2022/11/06 03:46:27;;;;;;;29.20;15.75;;;4.40;99.90;;;;;;5028385;28;20552;-59
2022/11/06 03:49:00;;;;;;;26.92;15.70;;;4.30;99.90;;;;;;5028565;28;20037;-59
2022/11/06 03:51:31;;;;;;;46.00;20.20;;;4.20;99.90;;;;;;5027853;28;20029;-58
2022/11/06 03:54:03;;;;;;;35.22;17.45;;;4.10;99.90;;;;;;5027433;28;20030;-58
2022/11/06 03:56:45;;;;;;;26.50;16.25;;;4.00;99.90;;;;;;5027289;28;20086;-59
2022/11/06 03:59:14;;;;;;;28.70;16.70;;;4.00;99.90;;;;;;5028004;28;20505;-60
2022/11/06 04:01:45;;;;;;;30.67;16.08;;;3.90;99.90;;;;;;5028907;28;20033;-60
2022/11/06 04:04:10;;;;;;;30.60;16.52;;;3.80;99.90;;;;;;5025659;28;20036;-59
2022/11/06 04:06:54;;;;;;;32.58;18.27;;;3.70;99.90;;;;;;5028082;28;20025;-61
2022/11/06 04:14:58;;;;;;;32.22;17.27;;;3.60;99.90;;;;;;5026435;28;20028;-59
2022/11/06 04:17:27;;;;;;;34.67;18.20;;;3.60;99.90;;;;;;5028152;28;20021;-58
2022/11/06 04:19:57;;;;;;;33.60;16.75;;;3.60;99.90;;;;;;5026478;28;20489;-58
2022/11/06 04:23:04;;;;;;;38.53;19.75;;;3.50;99.90;;;;;;5027187;28;20409;-59
2022/11/06 04:28:50;;;;;;;34.72;18.35;;;3.50;99.90;;;;;;4986324;28;20229;-58
2022/11/06 04:31:31;;;;;;;36.05;17.45;;;3.40;99.90;;;;;;5020719;28;20044;-59
2022/11/06 04:34:03;;;;;;;29.83;17.52;;;3.30;99.90;;;;;;5027686;28;20090;-59
2022/11/06 04:37:16;;;;;;;33.47;17.45;;;3.30;99.90;;;;;;5027824;28;20048;-60
2022/11/06 04:40:23;;;;;;;38.00;18.63;;;3.20;99.90;;;;;;5022440;28;20036;-60
2022/11/06 04:43:29;;;;;;;39.80;18.27;;;3.20;99.90;;;;;;4966726;28;20027;-58
2022/11/06 04:45:58;;;;;;;40.85;18.65;;;3.10;99.90;;;;;;5022959;28;20030;-60
2022/11/06 04:48:24;;;;;;;35.63;18.42;;;3.00;99.90;;;;;;5025630;28;20037;-59
2022/11/06 04:50:55;;;;;;;41.25;18.15;;;3.00;99.90;;;;;;5027364;28;20137;-59
2022/11/06 04:53:23;;;;;;;40.10;19.88;;;3.00;99.90;;;;;;5026721;28;20034;-58
2022/11/06 04:55:54;;;;;;;36.55;18.42;;;3.00;99.90;;;;;;5023985;28;20037;-60
2022/11/06 04:58:20;;;;;;;40.78;19.02;;;3.00;99.90;;;;;;5025707;28;20520;-58
2022/11/06 05:00:48;;;;;;;36.60;18.27;;;2.90;99.90;;;;;;5026192;28;20026;-59
2022/11/06 05:03:14;;;;;;;40.10;18.25;;;2.90;99.90;;;;;;5025741;28;20104;-59
2022/11/06 05:05:40;;;;;;;38.10;18.33;;;2.90;99.90;;;;;;5025647;28;20141;-59
2022/11/06 05:08:10;;;;;;;47.22;18.55;;;2.90;99.90;;;;;;5027605;28;20087;-59
2022/11/06 05:10:36;;;;;;;41.60;19.67;;;2.90;99.90;;;;;;5026899;28;20060;-59
2022/11/06 05:13:01;;;;;;;43.72;18.00;;;2.90;99.90;;;;;;5025949;28;20510;-59
2022/11/06 05:15:27;;;;;;;37.10;16.60;;;2.90;99.90;;;;;;5027861;28;20034;-59
2022/11/06 05:17:53;;;;;;;33.50;17.33;;;2.90;99.90;;;;;;5026561;28;20497;-59
2022/11/06 05:20:18;;;;;;;36.55;17.15;;;2.90;99.90;;;;;;5027768;28;20032;-59
2022/11/06 05:22:59;;;;;;;35.53;17.08;;;2.80;99.90;;;;;;5027359;28;20059;-59
2022/11/06 05:25:37;;;;;;;31.58;16.95;;;2.80;99.90;;;;;;5027300;28;20044;-59
2022/11/06 05:28:06;;;;;;;36.72;17.73;;;2.80;99.90;;;;;;5027399;28;20018;-59
2022/11/06 05:30:33;;;;;;;35.15;17.52;;;2.80;99.90;;;;;;5026530;28;20030;-59
2022/11/06 05:32:59;;;;;;;26.30;16.73;;;2.80;99.90;;;;;;5026494;28;20402;-59
2022/11/06 05:35:24;;;;;;;24.60;14.98;;;2.80;99.90;;;;;;5027448;28;20041;-60
2022/11/06 05:37:56;;;;;;;31.63;17.17;;;2.80;99.90;;;;;;5027579;28;20569;-60
2022/11/06 05:40:22;;;;;;;30.05;17.08;;;2.80;99.90;;;;;;5026139;28;20049;-60
2022/11/06 05:42:48;;;;;;;31.75;17.05;;;2.80;99.90;;;;;;5027608;28;20103;-58
2022/11/06 05:45:13;;;;;;;28.20;15.23;;;2.80;99.90;;;;;;5026240;28;20112;-59
2022/11/06 05:47:40;;;;;;;29.98;15.90;;;2.80;99.90;;;;;;5031037;28;20033;-60
2022/11/06 05:50:07;;;;;;;33.20;15.43;;;2.80;99.90;;;;;;5031408;28;20034;-59
2022/11/06 05:52:34;;;;;;;26.67;15.95;;;2.70;99.90;;;;;;5030825;28;20367;-58
2022/11/06 05:55:00;;;;;;;28.45;15.35;;;2.70;99.90;;;;;;5028455;28;20052;-61
2022/11/06 05:57:25;;;;;;;26.05;15.27;;;2.60;99.90;;;;;;5030462;28;20030;-59
2022/11/06 05:59:51;;;;;;;25.27;16.25;;;2.60;99.90;;;;;;5030726;28;20489;-60
2022/11/06 06:02:16;;;;;;;25.95;15.77;;;2.60;99.90;;;;;;5030217;28;20020;-58
2022/11/06 06:04:42;;;;;;;30.85;16.88;;;2.60;99.90;;;;;;5030809;28;20112;-59
2022/11/06 06:07:08;;;;;;;49.35;26.42;;;2.50;99.90;;;;;;5030080;28;20025;-59
2022/11/06 06:09:33;;;;;;;35.97;21.13;;;2.50;99.90;;;;;;5029321;28;20026;-58
2022/11/06 06:11:59;;;;;;;37.80;18.55;;;2.50;99.90;;;;;;5030361;28;20041;-59
2022/11/06 06:14:24;;;;;;;27.85;16.10;;;2.50;99.90;;;;;;5030146;28;20032;-59
2022/11/06 06:16:50;;;;;;;30.17;15.85;;;2.50;99.90;;;;;;5030855;28;20501;-59
2022/11/06 06:19:16;;;;;;;33.30;17.73;;;2.50;99.90;;;;;;5029860;28;20029;-58
2022/11/06 06:21:41;;;;;;;40.88;18.27;;;2.40;99.90;;;;;;5030399;28;20026;-58
2022/11/06 06:24:07;;;;;;;37.20;17.15;;;2.40;99.90;;;;;;5030116;28;20036;-58
2022/11/06 06:26:32;;;;;;;37.92;17.02;;;2.50;99.90;;;;;;5030413;28;20025;-58
2022/11/06 06:28:58;;;;;;;37.70;17.60;;;2.60;99.90;;;;;;5029847;28;20036;-60
2022/11/06 06:31:24;;;;;;;39.97;17.52;;;2.70;99.90;;;;;;5028666;28;20030;-59
2022/11/06 06:33:49;;;;;;;44.55;18.27;;;2.80;99.90;;;;;;5029984;28;20117;-59
2022/11/06 06:36:15;;;;;;;49.88;18.30;;;3.00;99.90;;;;;;5028777;28;20049;-59
2022/11/06 06:38:41;;;;;;;48.25;19.30;;;3.20;99.90;;;;;;5030461;28;20064;-59
2022/11/06 06:41:07;;;;;;;35.25;17.58;;;3.30;99.90;;;;;;5028752;28;20052;-59
2022/11/06 06:43:33;;;;;;;39.60;17.70;;;3.40;99.90;;;;;;5029860;28;20065;-60
2022/11/06 06:46:00;;;;;;;39.53;17.67;;;3.60;99.90;;;;;;5029494;28;20053;-59
2022/11/06 06:48:26;;;;;;;40.55;18.52;;;3.70;99.90;;;;;;5029105;28;20071;-58
2022/11/06 06:50:55;;;;;;;36.17;17.55;;;3.80;99.90;;;;;;5029876;28;20615;-60
2022/11/06 06:53:20;;;;;;;37.70;17.08;;;3.90;99.90;;;;;;5028889;28;20767;-59
2022/11/06 06:55:46;;;;;;;34.70;18.10;;;4.00;99.90;;;;;;5029745;28;20129;-59
2022/11/06 06:58:11;;;;;;;31.30;15.93;;;4.00;99.90;;;;;;5027457;28;20053;-60
2022/11/06 07:00:37;;;;;;;31.73;17.58;;;4.10;99.90;;;;;;5027765;28;20033;-60
2022/11/06 07:03:03;;;;;;;25.45;15.43;;;4.10;99.90;;;;;;5023838;28;20375;-59
2022/11/06 07:05:28;;;;;;;28.20;16.35;;;4.10;99.90;;;;;;5025546;28;20355;-59
2022/11/06 07:07:54;;;;;;;21.67;14.32;;;4.20;99.90;;;;;;5028442;28;20083;-60
2022/11/06 07:10:19;;;;;;;24.83;15.50;;;4.20;99.90;;;;;;5025195;28;20056;-61
2022/11/06 07:12:45;;;;;;;21.42;15.07;;;4.30;99.90;;;;;;5025357;28;20057;-60
2022/11/06 07:15:11;;;;;;;26.00;15.60;;;4.50;99.90;;;;;;5027261;28;20037;-60
2022/11/06 07:17:36;;;;;;;25.30;15.38;;;4.50;99.90;;;;;;5027789;28;20021;-60
2022/11/06 07:20:03;;;;;;;33.90;17.00;;;4.60;99.90;;;;;;5026693;28;20117;-60
2022/11/06 07:22:28;;;;;;;29.98;17.00;;;4.60;99.90;;;;;;5024977;28;20034;-60
2022/11/06 07:24:54;;;;;;;32.55;17.63;;;4.70;99.90;;;;;;5023065;28;20449;-59
2022/11/06 07:27:20;;;;;;;35.75;16.30;;;4.80;99.90;;;;;;5024168;28;20043;-59
2022/11/06 07:29:45;;;;;;;38.50;17.63;;;4.90;99.90;;;;;;5025470;28;20018;-60
2022/11/06 07:32:11;;;;;;;47.10;18.80;;;5.10;99.90;;;;;;5024599;28;20071;-61
2022/11/06 07:34:37;;;;;;;41.72;18.60;;;5.10;99.90;;;;;;5024818;28;20084;-60
2022/11/06 07:37:06;;;;;;;39.80;18.70;;;5.20;99.90;;;;;;5019607;28;20030;-61
2022/11/06 07:39:32;;;;;;;44.40;18.63;;;5.30;99.90;;;;;;5022044;28;20973;-59
2022/11/06 07:41:58;;;;;;;41.25;19.40;;;5.40;99.90;;;;;;5025355;28;20500;-60
2022/11/06 07:44:24;;;;;;;42.40;17.35;;;5.50;99.90;;;;;;5024709;28;20125;-59
2022/11/06 07:46:49;;;;;;;39.47;17.77;;;5.50;99.90;;;;;;5025991;28;20029;-60
2022/11/06 07:49:15;;;;;;;35.80;16.13;;;5.70;99.90;;;;;;5023633;28;20025;-60
2022/11/06 07:51:41;;;;;;;36.85;17.70;;;5.70;99.90;;;;;;5021626;28;20049;-60
2022/11/06 07:54:07;;;;;;;37.13;17.27;;;5.70;99.90;;;;;;5024318;28;20025;-60
2022/11/06 07:56:33;;;;;;;38.40;18.40;;;5.80;99.90;;;;;;5023201;28;20030;-58
2022/11/06 07:58:58;;;;;;;39.67;17.75;;;5.80;99.90;;;;;;5027670;28;20034;-59
2022/11/06 08:01:24;;;;;;;37.10;17.00;;;5.80;99.90;;;;;;5028220;28;20072;-58
2022/11/06 08:03:50;;;;;;;35.92;16.50;;;5.90;99.90;;;;;;5028668;28;20021;-58
2022/11/06 08:06:16;;;;;;;36.85;16.15;;;6.00;99.90;;;;;;5027651;28;20540;-58
2022/11/06 08:08:41;;;;;;;34.83;18.38;;;6.00;99.90;;;;;;5029398;28;20064;-58
2022/11/06 08:11:09;;;;;;;28.08;15.52;;;6.20;99.90;;;;;;5027606;28;20022;-59
2022/11/06 08:13:35;;;;;;;28.60;15.93;;;6.30;99.90;;;;;;5025116;28;20052;-60
2022/11/06 08:16:09;;;;;;;26.73;16.15;;;6.50;99.90;;;;;;5023522;28;20042;-60
2022/11/06 08:18:35;;;;;;;25.70;15.45;;;6.50;99.90;;;;;;5023121;28;20032;-60
2022/11/06 08:21:02;;;;;;;29.42;15.98;;;6.50;99.90;;;;;;5024066;28;20033;-59
2022/11/06 08:23:28;;;;;;;29.92;15.18;;;6.50;99.90;;;;;;5023266;28;20529;-60
2022/11/06 08:25:58;;;;;;;32.25;15.75;;;6.60;99.90;;;;;;5026912;28;20116;-59
2022/11/06 08:28:25;;;;;;;32.55;16.80;;;6.60;99.90;;;;;;5027686;28;20405;-59
2022/11/06 08:30:50;;;;;;;26.73;16.77;;;6.60;99.90;;;;;;5028312;28;20048;-59
2022/11/06 08:33:17;;;;;;;26.30;16.38;;;6.60;99.90;;;;;;5026748;28;20457;-58
2022/11/06 08:35:42;;;;;;;30.63;17.25;;;6.50;99.90;;;;;;5028234;28;20397;-60
2022/11/06 08:38:08;;;;;;;38.25;16.75;;;6.50;99.90;;;;;;5026307;28;20033;-60
2022/11/06 08:40:37;;;;;;;26.40;16.30;;;6.60;99.90;;;;;;5028418;28;20029;-60
2022/11/06 08:43:08;;;;;;;30.63;16.65;;;6.60;99.90;;;;;;5028137;28;20033;-60
2022/11/06 08:45:38;;;;;;;29.85;16.77;;;6.50;99.90;;;;;;5027141;28;20052;-59
2022/11/06 08:48:04;;;;;;;31.02;16.63;;;6.40;99.90;;;;;;5026264;28;20660;-58
2022/11/06 08:50:31;;;;;;;24.15;15.98;;;6.40;99.90;;;;;;5027897;28;20021;-60
2022/11/06 08:53:03;;;;;;;24.95;14.25;;;6.30;99.90;;;;;;5028172;28;20705;-59
2022/11/06 08:55:35;;;;;;;;;;;6.30;99.90;;;;;;5025548;28;20038;-59
2022/11/06 08:58:02;;;;;;;21.83;13.52;;;6.20;99.90;;;;;;5027774;28;19920;-60
2022/11/06 09:00:28;;;;;;;24.70;14.02;;;6.30;99.90;;;;;;5024247;28;20029;-58
2022/11/06 09:03:06;;;;;;;21.27;13.85;;;6.30;99.90;;;;;;5027338;28;20021;-59
2022/11/06 09:05:32;;;;;;;26.08;14.35;;;6.40;99.90;;;;;;5027776;28;20824;-61
2022/11/06 09:07:58;;;;;;;24.20;13.98;;;6.40;99.90;;;;;;5014037;28;20578;-59
2022/11/06 09:10:25;;;;;;;23.67;13.55;;;6.50;99.90;;;;;;5027547;28;20465;-59
2022/11/06 09:12:51;;;;;;;19.25;13.25;;;6.70;99.90;;;;;;5024876;28;20666;-58
2022/11/06 09:15:18;;;;;;;25.65;14.85;;;6.70;99.90;;;;;;5026756;28;20038;-59
2022/11/06 09:17:49;;;;;;;20.77;13.57;;;6.80;99.90;;;;;;5027075;28;20033;-59
2022/11/06 09:20:20;;;;;;;18.02;12.50;;;6.90;99.90;;;;;;5027329;28;20574;-59
2022/11/06 09:22:46;;;;;;;21.90;13.95;;;6.90;99.90;;;;;;5026610;28;20083;-58
2022/11/06 09:25:12;;;;;;;19.20;13.90;;;6.80;99.90;;;;;;5027346;28;20438;-59
2022/11/06 09:27:57;;;;;;;26.25;16.50;;;7.00;99.90;;;;;;5026395;28;20558;-60
2022/11/06 09:30:23;;;;;;;22.15;13.80;;;7.10;99.90;;;;;;5026792;28;20026;-59
2022/11/06 09:32:57;;;;;;;19.60;13.50;;;7.20;99.90;;;;;;5026446;28;20025;-59
2022/11/06 09:35:25;;;;;;;19.02;14.23;;;7.30;99.90;;;;;;5027799;28;20069;-59
2022/11/06 09:37:50;;;;;;;23.73;14.20;;;7.50;99.90;;;;;;5024631;28;20087;-58
2022/11/06 09:40:26;;;;;;;17.02;13.10;;;7.50;99.90;;;;;;4996524;28;20405;-58
2022/11/06 09:43:20;;;;;;;20.52;13.77;;;7.60;99.90;;;;;;4952840;28;20038;-59
2022/11/06 09:45:48;;;;;;;17.42;13.73;;;7.70;99.90;;;;;;5007173;28;20053;-61
2022/11/06 09:48:29;;;;;;;15.18;13.32;;;7.70;99.90;;;;;;5004949;28;20037;-59
2022/11/06 09:51:03;;;;;;;17.63;12.35;;;7.70;99.90;;;;;;4955016;28;20064;-59
2022/11/06 09:53:47;;;;;;;19.20;13.05;;;7.80;99.90;;;;;;5006647;28;20022;-58
2022/11/06 09:56:15;;;;;;;15.23;13.38;;;7.90;99.90;;;;;;5007463;28;20348;-59
2022/11/06 09:58:43;;;;;;;18.13;12.38;;;7.90;99.90;;;;;;5007421;28;20030;-59
2022/11/06 10:01:22;;;;;;;18.98;13.27;;;8.00;99.90;;;;;;5005185;28;20398;-60
2022/11/06 10:03:51;;;;;;;14.93;11.13;;;8.20;99.90;;;;;;5003818;28;20096;-60
2022/11/06 10:06:20;;;;;;;13.73;11.10;;;8.30;99.90;;;;;;5007075;28;20026;-59
2022/11/06 10:08:45;;;;;;;14.23;12.20;;;8.60;99.90;;;;;;5005930;28;20406;-60
2022/11/06 10:11:14;;;;;;;12.65;10.68;;;9.10;99.90;;;;;;5005720;28;20022;-60
2022/11/06 10:13:54;;;;;;;12.23;9.80;;;9.40;99.90;;;;;;5007052;28;20034;-61
2022/11/06 10:16:47;;;;;;;14.90;10.00;;;9.60;99.90;;;;;;5007251;28;20040;-60
2022/11/06 10:19:15;;;;;;;11.38;9.73;;;9.90;99.90;;;;;;5006159;28;20030;-59
2022/11/06 10:21:52;;;;;;;11.15;9.18;;;10.20;99.90;;;;;;5007331;28;20049;-60
2022/11/06 10:24:52;;;;;;;14.15;9.65;;;10.10;99.90;;;;;;5005277;28;20030;-60
2022/11/06 10:27:27;;;;;;;11.95;9.32;;;10.30;99.90;;;;;;5006683;28;20483;-59
2022/11/06 10:30:09;;;;;;;9.68;8.18;;;10.40;99.90;;;;;;5004572;28;20052;-59
2022/11/06 10:32:53;;;;;;;11.18;9.02;;;10.70;99.90;;;;;;5009548;28;20033;-60
2022/11/06 10:35:19;;;;;;;9.65;8.75;;;10.70;99.90;;;;;;5010500;28;20125;-59
2022/11/06 10:38:06;;;;;;;10.05;9.00;;;10.70;99.90;;;;;;5009705;28;20540;-59
2022/11/06 10:40:34;;;;;;;8.73;7.82;;;10.80;99.90;;;;;;5007781;28;20026;-60
2022/11/06 10:43:24;;;;;;;9.88;8.10;;;11.00;99.90;;;;;;5008896;28;20030;-59
2022/11/06 10:45:59;;;;;;;8.57;7.33;;;10.90;99.90;;;;;;5006131;28;20569;-60
2022/11/06 10:48:29;;;;;;;9.05;8.15;;;10.90;99.90;;;;;;5003344;28;20038;-60
2022/11/06 10:51:13;;;;;;;10.55;8.55;;;10.90;99.90;;;;;;5004304;28;20026;-59
2022/11/06 10:53:45;;;;;;;9.77;8.77;;;10.90;99.90;;;;;;5005366;28;20473;-59
2022/11/06 10:56:33;;;;;;;9.82;8.35;;;11.20;99.90;;;;;;5003337;28;20046;-61
2022/11/06 10:58:59;;;;;;;9.70;8.80;;;11.00;99.90;;;;;;5001241;28;20559;-60
2022/11/06 11:01:25;;;;;;;8.82;7.57;;;10.90;99.90;;;;;;5007032;28;20042;-59
2022/11/06 11:03:51;;;;;;;10.13;7.93;;;10.80;99.90;;;;;;5009463;28;20030;-59
2022/11/06 11:06:17;;;;;;;9.48;8.48;;;10.80;99.90;;;;;;5009884;28;20042;-59
2022/11/06 11:08:46;;;;;;;9.50;8.50;;;10.60;99.90;;;;;;5008159;28;20561;-59
2022/11/06 11:11:14;;;;;;;9.93;8.85;;;10.60;99.90;;;;;;5006140;28;20494;-60
2022/11/06 11:13:42;;;;;;;10.23;9.18;;;10.30;99.90;;;;;;5006908;28;20045;-59
2022/11/06 11:16:31;;;;;;;9.48;8.57;;;10.20;99.90;;;;;;5007145;28;20030;-59
2022/11/06 11:19:24;;;;;;;10.68;8.48;;;10.10;99.90;;;;;;5006446;28;20747;-60
2022/11/06 11:21:56;;;;;;;11.18;9.27;;;10.00;99.90;;;;;;5009218;28;20046;-58
2022/11/06 11:24:22;;;;;;;10.25;9.23;;;10.00;99.90;;;;;;5007532;28;20037;-59
2022/11/06 11:27:03;;;;;;;10.07;8.73;;;9.90;99.90;;;;;;5009516;28;20017;-59
2022/11/06 11:29:49;;;;;;;;;;;9.80;99.90;;;;;;5010744;28;20037;-59
2022/11/06 11:32:17;;;;;;;17.65;10.52;;;9.90;99.90;;;;;;5002975;28;19984;-60
2022/11/06 11:34:52;;;;;;;11.23;9.85;;;10.00;99.90;;;;;;5006364;28;20049;-60
2022/11/06 11:37:34;;;;;;;10.15;9.18;;;9.90;99.90;;;;;;5006806;28;20441;-59
2022/11/06 11:40:30;;;;;;;11.73;9.13;;;10.00;99.90;;;;;;5005170;28;20072;-59
2022/11/06 11:43:14;;;;;;;10.63;9.32;;;10.20;99.90;;;;;;5002102;28;20034;-59
2022/11/06 11:45:40;;;;;;;9.57;8.50;;;10.30;99.90;;;;;;5004924;28;20474;-60
2022/11/06 11:48:12;;;;;;;8.98;8.07;;;10.40;99.90;;;;;;5004500;28;20133;-60
2022/11/06 11:50:38;;;;;;;11.07;9.40;;;10.40;99.90;;;;;;5004414;28;20030;-59
2022/11/06 11:53:19;;;;;;;10.32;9.18;;;10.30;99.90;;;;;;5004475;28;20034;-59
2022/11/06 11:55:48;;;;;;;9.90;8.70;;;10.30;99.90;;;;;;5006394;28;20061;-59
2022/11/06 11:58:25;;;;;;;10.98;9.82;;;10.20;99.90;;;;;;5008768;28;20131;-60
2022/11/06 12:01:02;;;;;;;9.93;8.85;;;10.30;99.90;;;;;;5006433;28;20503;-60
2022/11/06 12:03:40;;;;;;;9.80;8.50;;;10.20;99.90;;;;;;5004687;28;20694;-61
2022/11/06 12:06:11;;;;;;;12.98;9.65;;;10.50;99.90;;;;;;4999263;28;20804;-61
2022/11/06 12:08:40;;;;;;;11.30;9.88;;;10.70;99.90;;;;;;5002216;28;20029;-60
2022/11/06 12:11:06;;;;;;;10.02;8.95;;;10.80;99.90;;;;;;5000360;28;20113;-60
2022/11/06 12:13:31;;;;;;;11.55;9.32;;;10.80;99.90;;;;;;5003388;28;20172;-62
2022/11/06 12:15:57;;;;;;;11.90;9.40;;;10.50;99.90;;;;;;5004432;28;20494;-60
2022/11/06 12:18:51;;;;;;;10.35;9.30;;;10.30;99.90;;;;;;5002986;28;20769;-60
2022/11/06 12:21:29;;;;;;;15.50;10.95;;;10.10;99.90;;;;;;5006637;28;20104;-59
2022/11/06 12:24:02;;;;;;;12.05;10.20;;;9.70;99.90;;;;;;5008367;28;20121;-60
2022/11/06 12:26:44;;;;;;;14.27;10.73;;;9.80;99.90;;;;;;5008116;28;20026;-59
2022/11/06 12:29:13;;;;;;;12.80;10.10;;;9.80;99.90;;;;;;5006267;28;20494;-59
2022/11/06 12:32:12;;;;;;;12.27;10.15;;;9.80;99.90;;;;;;5008108;28;20035;-59
2022/11/06 12:34:49;;;;;;;13.68;11.77;;;10.00;99.90;;;;;;5005996;28;20062;-59
2022/11/06 12:37:17;;;;;;;11.68;10.48;;;10.10;99.90;;;;;;5008044;28;20030;-60
2022/11/06 12:39:56;;;;;;;12.00;10.77;;;9.90;99.90;;;;;;5003729;28;20034;-60
2022/11/06 12:42:27;;;;;;;13.25;10.63;;;9.70;99.90;;;;;;4991481;28;20056;-60
2022/11/06 12:44:52;;;;;;;17.27;11.73;;;9.50;99.90;;;;;;5003989;28;20014;-60
2022/11/06 12:47:27;;;;;;;13.45;10.40;;;9.40;99.90;;;;;;5000503;28;20421;-61
2022/11/06 12:50:22;;;;;;;11.15;9.65;;;9.40;99.90;;;;;;4998315;28;20034;-59
2022/11/06 12:53:28;;;;;;;12.93;10.30;;;9.20;99.90;;;;;;5001608;28;20073;-59
2022/11/06 12:56:00;;;;;;;14.23;11.32;;;9.10;99.90;;;;;;5004019;28;20041;-59
2022/11/06 12:59:05;;;;;;;13.25;10.70;;;9.10;99.90;;;;;;5004935;28;20030;-59
2022/11/06 13:01:51;;;;;;;10.85;9.20;;;9.10;99.90;;;;;;4998529;28;20658;-60
2022/11/06 13:04:46;;;;;;;11.00;9.23;;;9.10;99.90;;;;;;5004805;28;20057;-60
2022/11/06 13:07:32;;;;;;;11.10;9.70;;;9.20;99.90;;;;;;5006503;28;20078;-59
2022/11/06 13:09:57;;;;;;;9.70;8.65;;;9.50;99.90;;;;;;5002898;28;20688;-58